Virginiborg — PBDL — position and weather

sailwx.info

Track history (hours):
 
Tides and Currents Weather Stations Pressure Air Temp Water Temp Dewpoint Dewpoint Depression Visibility Wind Speed Wind Dir Waves Ship Positions

Virginiborg

Last reported at 2018-Jul-21 13:06 UTC. Time now 2018-Jul-21 13:33 UTC.
Position N 59°29' E 024°58'.

Length 132 m; draft 8 m.

Type: Cargo ship. MMSI: 244632000.

Date/timePositionNaut miles runAvg speedWind from/ knotsBaromVisibWave heightAir tempDewpointWater temp
2018-Jul-21 13:06N 59°29' E 024°58'0 0.0
2018-Jul-21 13:00N 59°29' E 024°58'0 0.0
2018-Jul-21 12:26N 59°29' E 024°58'0 0.0
2018-Jul-21 11:59N 59°29' E 024°58'0 0.0
2018-Jul-21 11:28N 59°29' E 024°58'0 0.0
2018-Jul-21 10:56N 59°29' E 024°58'0 0.0
2018-Jul-21 10:16N 59°29' E 024°58'0 0.0
2018-Jul-21 09:50N 59°29' E 024°58'0 0.0
2018-Jul-21 09:30N 59°29' E 024°58'0 0.0
2018-Jul-21 09:00N 59°29' E 024°58'0 0.0
2018-Jul-21 08:27N 59°29' E 024°58'0 0.0
2018-Jul-21 08:00N 59°29' E 024°58'0 0.0
2018-Jul-21 07:30N 59°29' E 024°58'0 0.0
2018-Jul-21 06:56N 59°29' E 024°58'0 0.0
2018-Jul-21 06:29N 59°29' E 024°58'0 0.0
2018-Jul-21 05:49N 59°29' E 024°58'0 0.0
2018-Jul-21 05:30N 59°29' E 024°58'0 0.0
2018-Jul-21 04:58N 59°29' E 024°58'0 0.0
2018-Jul-21 04:30N 59°29' E 024°58'5 3.7
2018-Jul-21 03:13N 59°34' E 024°54'7 9.2
2018-Jul-21 02:29N 59°37' E 024°43'1010.5
2018-Jul-21 01:34N 59°38' E 024°24'1 8.5
2018-Jul-21 01:30N 59°38' E 024°23'1410.4
2018-Jul-21 00:08N 59°34' E 023°56'510.6
2018-Jul-20 23:42N 59°33' E 023°47'210.6
2018-Jul-20 23:28N 59°32' E 023°42'510.5
2018-Jul-20 23:00N 59°31' E 023°33'23610.4
2018-Jul-20 00:15N 56°44' E 018°19'310.5
2018-Jul-20 00:00N 56°42' E 018°15'1210.6
2018-Jul-19 22:51N 56°34' E 017°58'1410.7
2018-Jul-19 21:30N 56°25' E 017°37'3010.6
2018-Jul-19 18:41N 56°07' E 016°55'210.5
2018-Jul-19 18:29N 56°06' E 016°52'510.2
2018-Jul-19 18:00N 56°03' E 016°45'510.1
2018-Jul-19 17:30N 56°00' E 016°37'510.2
2018-Jul-19 17:00N 55°57' E 016°29'510.2
2018-Jul-19 16:30N 55°55' E 016°21'510.2
2018-Jul-19 16:00N 55°53' E 016°13'510.3
2018-Jul-19 15:30N 55°50' E 016°05'510.4
2018-Jul-19 15:00N 55°48' E 015°57'1110.9
2018-Jul-19 14:00N 55°42' E 015°40'611.1
2018-Jul-19 13:30N 55°40' E 015°31'611.0
2018-Jul-19 13:00N 55°37' E 015°23'510.8
2018-Jul-19 12:30N 55°34' E 015°15'510.6
2018-Jul-19 12:00N 55°32' E 015°06'510.6
2018-Jul-19 11:30N 55°29' E 014°58'510.8
2018-Jul-19 11:00N 55°27' E 014°50'510.6
2018-Jul-19 10:29N 55°24' E 014°42'510.2
2018-Jul-19 10:00N 55°20' E 014°35'510.5
2018-Jul-19 09:30N 55°16' E 014°29'510.4
2018-Jul-19 09:00N 55°12' E 014°24'510.5
2018-Jul-19 08:30N 55°08' E 014°18'510.5
2018-Jul-19 08:00N 55°04' E 014°13'510.6
2018-Jul-19 07:30N 55°00' E 014°05'1910.6
2018-Jul-19 05:41N 54°54' E 013°33'1110.3
2018-Jul-19 04:35N 54°51' E 013°15'2410.1
2018-Jul-19 02:10N 54°42' E 012°35'21 9.6
2018-Jul-19 00:00N 54°26' E 012°12'5 9.5
2018-Jul-18 23:30N 54°24' E 012°05'510.3
2018-Jul-18 23:00N 54°24' E 011°56'124 8.0
2018-Jul-18 07:31N 56°28' E 011°34'010.1
2018-Jul-18 07:29N 56°28' E 011°34'610.0
2018-Jul-18 06:53N 56°34' E 011°40'410.0
2018-Jul-18 06:30N 56°37' E 011°43'510.1
2018-Jul-18 06:00N 56°41' E 011°48'20 9.5
2018-Jul-18 03:53N 57°01' E 011°42'4 9.9
2018-Jul-18 03:30N 57°05' E 011°39'5 9.6
2018-Jul-18 03:00N 57°09' E 011°37'5 9.8
2018-Jul-18 02:30N 57°14' E 011°37'5 9.9
2018-Jul-18 02:00N 57°19' E 011°37'510.2
2018-Jul-18 01:30N 57°24' E 011°36'510.3
2018-Jul-18 01:00N 57°29' E 011°36'510.0
2018-Jul-18 00:30N 57°34' E 011°38'2 3.3
2018-Jul-17 23:59N 57°35' E 011°41'0 0.1
2018-Jul-17 23:29N 57°35' E 011°41'0 0.1
2018-Jul-17 22:59N 57°35' E 011°41'0 0.0
2018-Jul-17 22:29N 57°35' E 011°41'0 0.0
2018-Jul-17 21:58N 57°35' E 011°41'0 0.1
2018-Jul-17 21:28N 57°35' E 011°41'0 0.6
2018-Jul-17 21:00N 57°35' E 011°40'3 6.0
2018-Jul-17 20:30N 57°36' E 011°35'510.8
2018-Jul-17 20:00N 57°38' E 011°26'611.0
2018-Jul-17 19:30N 57°40' E 011°16'510.8
2018-Jul-17 19:00N 57°42' E 011°07'510.7
2018-Jul-17 18:30N 57°44' E 010°58'611.0
2018-Jul-17 17:58N 57°47' E 010°47'511.7
2018-Jul-17 17:30N 57°47' E 010°37'612.2
2018-Jul-17 17:00N 57°47' E 010°26'611.8
2018-Jul-17 16:30N 57°47' E 010°15'611.7
2018-Jul-17 16:00N 57°46' E 010°04'611.3
2018-Jul-17 15:30N 57°45' E 009°53'611.1
2018-Jul-17 15:00N 57°45' E 009°43'611.3
2018-Jul-17 14:30N 57°45' E 009°32'611.4
2018-Jul-17 14:00N 57°44' E 009°22'510.9
2018-Jul-17 13:30N 57°44' E 009°12'611.3
2018-Jul-17 13:00N 57°44' E 009°01'2711.1
2018-Jul-17 10:34N 57°41' E 008°10'2010.9
2018-Jul-17 08:42N 57°42' E 007°33'210.7
2018-Jul-17 08:30N 57°42' E 007°29'510.8
2018-Jul-17 08:00N 57°42' E 007°19'611.0
2018-Jul-17 07:30N 57°42' E 007°08'611.4
2018-Jul-17 06:58N 57°42' E 006°57'7410.9
2018-Jul-17 00:15N 58°25' E 005°04'1211.1
2018-Jul-16 23:11N 58°34' E 004°48'211.2
2018-Jul-16 23:00N 58°35' E 004°46'17710.3
2018-Jul-16 05:49N 61°32' E 004°21'310.4
2018-Jul-16 05:30N 61°35' E 004°24'510.5
2018-Jul-16 05:00N 61°40' E 004°29'510.2
2018-Jul-16 04:30N 61°42' E 004°39'610.9
2018-Jul-16 03:59N 61°43' E 004°51'4 7.9
2018-Jul-16 03:30N 61°41' E 004°57'1 1.8
2018-Jul-16 03:00N 61°40' E 004°58'0 0.0
2018-Jul-16 02:30N 61°40' E 004°58'0 0.1
2018-Jul-16 02:00N 61°40' E 004°58'0 0.0
2018-Jul-16 01:29N 61°40' E 004°58'0 0.0
2018-Jul-16 00:59N 61°40' E 004°58'0 0.0
2018-Jul-16 00:29N 61°40' E 004°58'0 0.0
2018-Jul-15 23:59N 61°40' E 004°58'0 0.1
2018-Jul-15 23:29N 61°40' E 004°58'0 0.0
2018-Jul-15 22:58N 61°40' E 004°58'0 0.0
2018-Jul-15 22:28N 61°40' E 004°58'0 0.0
2018-Jul-15 21:58N 61°40' E 004°58'0 0.0
2018-Jul-15 21:28N 61°40' E 004°58'0 0.0
2018-Jul-15 21:00N 61°40' E 004°58'0 0.0
2018-Jul-15 20:27N 61°40' E 004°58'0 0.1
2018-Jul-15 20:00N 61°40' E 004°58'0 0.0
2018-Jul-15 19:30N 61°40' E 004°58'0 0.0
2018-Jul-15 19:00N 61°40' E 004°58'0 0.0
2018-Jul-15 18:29N 61°40' E 004°58'0 0.0
2018-Jul-15 18:00N 61°40' E 004°58'0 0.0
2018-Jul-15 17:30N 61°40' E 004°58'0 0.0
2018-Jul-15 16:57N 61°40' E 004°58'0 0.0
2018-Jul-15 16:30N 61°40' E 004°58'0 0.0
2018-Jul-15 15:59N 61°40' E 004°58'0 0.0
2018-Jul-15 15:28N 61°40' E 004°58'0 0.0
2018-Jul-15 14:56N 61°40' E 004°58'0 0.0
2018-Jul-15 14:30N 61°40' E 004°58'0 0.0
2018-Jul-15 14:00N 61°40' E 004°58'0 0.0
2018-Jul-15 13:28N 61°40' E 004°58'0 0.0
2018-Jul-15 12:55N 61°40' E 004°58'0 0.0
2018-Jul-15 12:28N 61°40' E 004°58'0 0.0
2018-Jul-15 11:58N 61°40' E 004°58'0 0.0
2018-Jul-15 11:28N 61°40' E 004°58'0 0.0
2018-Jul-15 11:00N 61°40' E 004°58'0 0.0
2018-Jul-15 10:30N 61°40' E 004°58'0 0.0
2018-Jul-15 10:00N 61°40' E 004°58'0 0.0
2018-Jul-15 09:30N 61°40' E 004°58'0 0.0
2018-Jul-15 08:59N 61°40' E 004°58'0 0.0
2018-Jul-15 08:29N 61°40' E 004°58'0 0.0
2018-Jul-15 07:58N 61°40' E 004°58'0 0.0
2018-Jul-15 07:29N 61°40' E 004°58'0 0.0
2018-Jul-15 07:00N 61°40' E 004°58'0 0.0
2018-Jul-15 06:30N 61°40' E 004°58'0 0.0
2018-Jul-15 06:00N 61°40' E 004°58'0 0.0
2018-Jul-15 05:30N 61°40' E 004°58'0 0.0
2018-Jul-15 05:00N 61°40' E 004°58'0 0.0
2018-Jul-15 04:27N 61°40' E 004°58'0 0.0
2018-Jul-15 04:00N 61°40' E 004°58'0 0.0
2018-Jul-15 03:30N 61°40' E 004°58'0 0.0
2018-Jul-15 03:00N 61°40' E 004°58'0 0.0
2018-Jul-15 02:29N 61°40' E 004°58'0 0.0
2018-Jul-15 01:59N 61°40' E 004°58'0 0.0
2018-Jul-15 01:29N 61°40' E 004°58'0 0.0
2018-Jul-15 00:59N 61°40' E 004°58'0 0.0
2018-Jul-15 00:29N 61°40' E 004°58'0 0.0
2018-Jul-14 23:58N 61°40' E 004°58'0 0.0
2018-Jul-14 23:25N 61°40' E 004°58'0 0.0
2018-Jul-14 22:58N 61°40' E 004°58'0 0.0
2018-Jul-14 22:23N 61°40' E 004°58'0 0.0
2018-Jul-14 22:00N 61°40' E 004°58'0 0.0
2018-Jul-14 21:30N 61°40' E 004°58'0 0.0
2018-Jul-14 21:00N 61°40' E 004°58'0 0.0
2018-Jul-14 20:30N 61°40' E 004°58'0 0.0
2018-Jul-14 20:00N 61°40' E 004°58'0 0.1
2018-Jul-14 19:30N 61°40' E 004°58'3 7.1
2018-Jul-14 19:01N 61°43' E 004°55'510.2
2018-Jul-14 18:30N 61°42' E 004°44'611.4
2018-Jul-14 18:00N 61°46' E 004°36'611.1
2018-Jul-14 17:30N 61°52' E 004°39'1 2.1
2018-Jul-14 17:00N 61°53' E 004°39'0 0.9
2018-Jul-14 16:30N 61°53' E 004°38'1 1.1
2018-Jul-14 15:59N 61°53' E 004°37'1 1.1
2018-Jul-14 15:30N 61°52' E 004°36'1 1.3
2018-Jul-14 15:00N 61°52' E 004°35'1 1.1
2018-Jul-14 14:00N 61°52' E 004°32'1 1.0
2018-Jul-14 13:30N 61°52' E 004°31'1 1.1
2018-Jul-14 13:00N 61°52' E 004°30'0 0.9
2018-Jul-14 12:29N 61°52' E 004°29'0 1.0
2018-Jul-14 12:00N 61°51' E 004°28'0 1.0
2018-Jul-14 11:30N 61°51' E 004°27'1 1.1
2018-Jul-14 10:59N 61°51' E 004°26'1 1.1
2018-Jul-14 10:30N 61°51' E 004°25'1 1.2
2018-Jul-14 10:00N 61°50' E 004°24'181 8.0
2018-Jul-13 11:17N 58°49' E 004°24'5 9.7
2018-Jul-13 10:48N 58°45' E 004°29'4 9.7
2018-Jul-13 10:24N 58°42' E 004°34'4 9.4
2018-Jul-13 09:59N 58°39' E 004°38'4 9.3
2018-Jul-13 09:31N 58°35' E 004°42'3410.9
2018-Jul-13 06:24N 58°05' E 005°12'510.2
2018-Jul-13 05:56N 58°00' E 005°14'910.2
2018-Jul-13 05:03N 57°51' E 005°18'010.3
2018-Jul-13 05:00N 57°51' E 005°18'9 9.8
2018-Jul-13 04:06N 57°42' E 005°21'1 9.9
2018-Jul-13 03:57N 57°41' E 005°22'5 9.9
2018-Jul-13 03:30N 57°36' E 005°23'12 9.8
2018-Jul-13 02:16N 57°25' E 005°27'7 9.8
2018-Jul-13 01:31N 57°17' E 005°30'3 9.8
2018-Jul-13 01:15N 57°15' E 005°31'3 9.8
2018-Jul-13 00:55N 57°12' E 005°32'5 9.9
2018-Jul-13 00:23N 57°06' E 005°34'5 9.9
2018-Jul-12 23:53N 57°02' E 005°36'4 9.9
2018-Jul-12 23:30N 56°58' E 005°37'610.2
2018-Jul-12 22:53N 56°51' E 005°39'4 9.9
2018-Jul-12 22:29N 56°48' E 005°40'5 9.8
2018-Jul-12 22:00N 56°43' E 005°42'910.2
2018-Jul-12 21:08N 56°34' E 005°43'2 9.8
2018-Jul-12 20:58N 56°32' E 005°44'35 9.8
2018-Jul-12 17:24N 55°58' E 005°40'63 9.4
2018-Jul-12 10:40N 54°54' E 005°29'2 9.7
2018-Jul-12 10:29N 54°53' E 005°29'5 9.7
2018-Jul-12 09:57N 54°48' E 005°27'6 9.7
2018-Jul-12 09:23N 54°42' E 005°25'5 9.8
2018-Jul-12 08:50N 54°37' E 005°23'5 9.9
2018-Jul-12 08:17N 54°32' E 005°20'310.1
2018-Jul-12 08:00N 54°29' E 005°19'2712.0
2018-Jul-12 05:47N 54°03' E 005°07'310.2
2018-Jul-12 05:30N 54°01' E 005°05'711.3
2018-Jul-12 04:55N 53°55' E 005°01'611.3
2018-Jul-12 04:22N 53°49' E 004°58'511.4
2018-Jul-12 03:55N 53°44' E 004°55'511.6
2018-Jul-12 03:30N 53°39' E 004°52'611.8
2018-Jul-12 03:00N 53°34' E 004°49'611.2
2018-Jul-12 02:30N 53°29' E 004°45'510.9
2018-Jul-12 02:00N 53°24' E 004°42'611.2
2018-Jul-12 01:30N 53°18' E 004°38'511.0
2018-Jul-12 01:00N 53°13' E 004°34'510.7
2018-Jul-12 00:30N 53°09' E 004°30'510.5
2018-Jul-12 00:00N 53°04' E 004°26'510.3
2018-Jul-11 23:30N 52°60' E 004°21'510.1
2018-Jul-11 23:00N 52°55' E 004°18'510.3
2018-Jul-11 22:30N 52°50' E 004°15'5 9.8
2018-Jul-11 21:59N 52°46' E 004°10'510.4
2018-Jul-11 21:30N 52°42' E 004°05'510.3
2018-Jul-11 20:59N 52°38' E 004°01'510.2
2018-Jul-11 20:30N 52°33' E 003°57'5 9.8
2018-Jul-11 20:00N 52°29' E 003°54'5 9.2
2018-Jul-11 19:30N 52°24' E 003°53'5 9.1
2018-Jul-11 19:00N 52°20' E 003°51'510.4
2018-Jul-11 18:30N 52°15' E 003°53'510.4
2018-Jul-11 18:00N 52°09' E 003°54'5 9.6
2018-Jul-11 17:30N 52°05' E 003°54'3 5.2
2018-Jul-11 17:00N 52°02' E 003°56'612.6
2018-Jul-11 16:30N 51°59' E 004°05'611.9
2018-Jul-11 16:00N 51°56' E 004°13'4 7.7
2018-Jul-11 15:30N 51°53' E 004°17'0 0.9
2018-Jul-11 15:00N 51°53' E 004°16'0 0.0
2018-Jul-11 14:30N 51°53' E 004°16'0 0.0
2018-Jul-11 13:59N 51°53' E 004°16'0 0.0
2018-Jul-11 13:29N 51°53' E 004°16'  
Track history (hours):
 
Tides and Currents Weather Stations Pressure Air Temp Water Temp Dewpoint Dewpoint Depression Visibility Wind Speed Wind Dir Waves Ship Positions

Virginiborg

Last reported at 2018-Jul-21 13:06 UTC. Time now 2018-Jul-21 13:33 UTC.
Position N 59°29' E 024°58'.

Length 132 m; draft 8 m.

Type: Cargo ship. MMSI: 244632000.

Date/timePositionNaut miles runAvg speedWind from/ knotsBaromVisibWave heightAir tempDewpointWater temp
2018-Jul-21 13:06N 59°29' E 024°58'0 0.0
2018-Jul-21 13:00N 59°29' E 024°58'0 0.0
2018-Jul-21 12:26N 59°29' E 024°58'0 0.0
2018-Jul-21 11:59N 59°29' E 024°58'0 0.0
2018-Jul-21 11:28N 59°29' E 024°58'0 0.0
2018-Jul-21 10:56N 59°29' E 024°58'0 0.0
2018-Jul-21 10:16N 59°29' E 024°58'0 0.0
2018-Jul-21 09:50N 59°29' E 024°58'0 0.0
2018-Jul-21 09:30N 59°29' E 024°58'0 0.0
2018-Jul-21 09:00N 59°29' E 024°58'0 0.0
2018-Jul-21 08:27N 59°29' E 024°58'0 0.0
2018-Jul-21 08:00N 59°29' E 024°58'0 0.0
2018-Jul-21 07:30N 59°29' E 024°58'0 0.0
2018-Jul-21 06:56N 59°29' E 024°58'0 0.0
2018-Jul-21 06:29N 59°29' E 024°58'0 0.0
2018-Jul-21 05:49N 59°29' E 024°58'0 0.0
2018-Jul-21 05:30N 59°29' E 024°58'0 0.0
2018-Jul-21 04:58N 59°29' E 024°58'0 0.0
2018-Jul-21 04:30N 59°29' E 024°58'5 3.7
2018-Jul-21 03:13N 59°34' E 024°54'7 9.2
2018-Jul-21 02:29N 59°37' E 024°43'1010.5
2018-Jul-21 01:34N 59°38' E 024°24'1 8.5
2018-Jul-21 01:30N 59°38' E 024°23'1410.4
2018-Jul-21 00:08N 59°34' E 023°56'510.6
2018-Jul-20 23:42N 59°33' E 023°47'210.6
2018-Jul-20 23:28N 59°32' E 023°42'510.5
2018-Jul-20 23:00N 59°31' E 023°33'23610.4
2018-Jul-20 00:15N 56°44' E 018°19'310.5
2018-Jul-20 00:00N 56°42' E 018°15'1210.6
2018-Jul-19 22:51N 56°34' E 017°58'1410.7
2018-Jul-19 21:30N 56°25' E 017°37'3010.6
2018-Jul-19 18:41N 56°07' E 016°55'210.5
2018-Jul-19 18:29N 56°06' E 016°52'510.2
2018-Jul-19 18:00N 56°03' E 016°45'510.1
2018-Jul-19 17:30N 56°00' E 016°37'510.2
2018-Jul-19 17:00N 55°57' E 016°29'510.2
2018-Jul-19 16:30N 55°55' E 016°21'510.2
2018-Jul-19 16:00N 55°53' E 016°13'510.3
2018-Jul-19 15:30N 55°50' E 016°05'510.4
2018-Jul-19 15:00N 55°48' E 015°57'1110.9
2018-Jul-19 14:00N 55°42' E 015°40'611.1
2018-Jul-19 13:30N 55°40' E 015°31'611.0
2018-Jul-19 13:00N 55°37' E 015°23'510.8
2018-Jul-19 12:30N 55°34' E 015°15'510.6
2018-Jul-19 12:00N 55°32' E 015°06'510.6
2018-Jul-19 11:30N 55°29' E 014°58'510.8
2018-Jul-19 11:00N 55°27' E 014°50'510.6
2018-Jul-19 10:29N 55°24' E 014°42'510.2
2018-Jul-19 10:00N 55°20' E 014°35'510.5
2018-Jul-19 09:30N 55°16' E 014°29'510.4
2018-Jul-19 09:00N 55°12' E 014°24'510.5
2018-Jul-19 08:30N 55°08' E 014°18'510.5
2018-Jul-19 08:00N 55°04' E 014°13'510.6
2018-Jul-19 07:30N 55°00' E 014°05'1910.6
2018-Jul-19 05:41N 54°54' E 013°33'1110.3
2018-Jul-19 04:35N 54°51' E 013°15'2410.1
2018-Jul-19 02:10N 54°42' E 012°35'21 9.6
2018-Jul-19 00:00N 54°26' E 012°12'5 9.5
2018-Jul-18 23:30N 54°24' E 012°05'510.3
2018-Jul-18 23:00N 54°24' E 011°56'124 8.0
2018-Jul-18 07:31N 56°28' E 011°34'010.1
2018-Jul-18 07:29N 56°28' E 011°34'610.0
2018-Jul-18 06:53N 56°34' E 011°40'410.0
2018-Jul-18 06:30N 56°37' E 011°43'510.1
2018-Jul-18 06:00N 56°41' E 011°48'20 9.5
2018-Jul-18 03:53N 57°01' E 011°42'4 9.9
2018-Jul-18 03:30N 57°05' E 011°39'5 9.6
2018-Jul-18 03:00N 57°09' E 011°37'5 9.8
2018-Jul-18 02:30N 57°14' E 011°37'5 9.9
2018-Jul-18 02:00N 57°19' E 011°37'510.2
2018-Jul-18 01:30N 57°24' E 011°36'510.3
2018-Jul-18 01:00N 57°29' E 011°36'510.0
2018-Jul-18 00:30N 57°34' E 011°38'2 3.3
2018-Jul-17 23:59N 57°35' E 011°41'0 0.1
2018-Jul-17 23:29N 57°35' E 011°41'0 0.1
2018-Jul-17 22:59N 57°35' E 011°41'0 0.0
2018-Jul-17 22:29N 57°35' E 011°41'0 0.0
2018-Jul-17 21:58N 57°35' E 011°41'0 0.1
2018-Jul-17 21:28N 57°35' E 011°41'0 0.6
2018-Jul-17 21:00N 57°35' E 011°40'3 6.0
2018-Jul-17 20:30N 57°36' E 011°35'510.8
2018-Jul-17 20:00N 57°38' E 011°26'611.0
2018-Jul-17 19:30N 57°40' E 011°16'510.8
2018-Jul-17 19:00N 57°42' E 011°07'510.7
2018-Jul-17 18:30N 57°44' E 010°58'611.0
2018-Jul-17 17:58N 57°47' E 010°47'511.7
2018-Jul-17 17:30N 57°47' E 010°37'612.2
2018-Jul-17 17:00N 57°47' E 010°26'611.8
2018-Jul-17 16:30N 57°47' E 010°15'611.7
2018-Jul-17 16:00N 57°46' E 010°04'611.3
2018-Jul-17 15:30N 57°45' E 009°53'611.1
2018-Jul-17 15:00N 57°45' E 009°43'611.3
2018-Jul-17 14:30N 57°45' E 009°32'611.4
2018-Jul-17 14:00N 57°44' E 009°22'510.9
2018-Jul-17 13:30N 57°44' E 009°12'611.3
2018-Jul-17 13:00N 57°44' E 009°01'2711.1
2018-Jul-17 10:34N 57°41' E 008°10'2010.9
2018-Jul-17 08:42N 57°42' E 007°33'210.7
2018-Jul-17 08:30N 57°42' E 007°29'510.8
2018-Jul-17 08:00N 57°42' E 007°19'611.0
2018-Jul-17 07:30N 57°42' E 007°08'611.4
2018-Jul-17 06:58N 57°42' E 006°57'7410.9
2018-Jul-17 00:15N 58°25' E 005°04'1211.1
2018-Jul-16 23:11N 58°34' E 004°48'211.2
2018-Jul-16 23:00N 58°35' E 004°46'17710.3
2018-Jul-16 05:49N 61°32' E 004°21'310.4
2018-Jul-16 05:30N 61°35' E 004°24'510.5
2018-Jul-16 05:00N 61°40' E 004°29'510.2
2018-Jul-16 04:30N 61°42' E 004°39'610.9
2018-Jul-16 03:59N 61°43' E 004°51'4 7.9
2018-Jul-16 03:30N 61°41' E 004°57'1 1.8
2018-Jul-16 03:00N 61°40' E 004°58'0 0.0
2018-Jul-16 02:30N 61°40' E 004°58'0 0.1
2018-Jul-16 02:00N 61°40' E 004°58'0 0.0
2018-Jul-16 01:29N 61°40' E 004°58'0 0.0
2018-Jul-16 00:59N 61°40' E 004°58'0 0.0
2018-Jul-16 00:29N 61°40' E 004°58'0 0.0
2018-Jul-15 23:59N 61°40' E 004°58'0 0.1
2018-Jul-15 23:29N 61°40' E 004°58'0 0.0
2018-Jul-15 22:58N 61°40' E 004°58'0 0.0
2018-Jul-15 22:28N 61°40' E 004°58'0 0.0
2018-Jul-15 21:58N 61°40' E 004°58'0 0.0
2018-Jul-15 21:28N 61°40' E 004°58'0 0.0
2018-Jul-15 21:00N 61°40' E 004°58'0 0.0
2018-Jul-15 20:27N 61°40' E 004°58'0 0.1
2018-Jul-15 20:00N 61°40' E 004°58'0 0.0
2018-Jul-15 19:30N 61°40' E 004°58'0 0.0
2018-Jul-15 19:00N 61°40' E 004°58'0 0.0
2018-Jul-15 18:29N 61°40' E 004°58'0 0.0
2018-Jul-15 18:00N 61°40' E 004°58'0 0.0
2018-Jul-15 17:30N 61°40' E 004°58'0 0.0
2018-Jul-15 16:57N 61°40' E 004°58'0 0.0
2018-Jul-15 16:30N 61°40' E 004°58'0 0.0
2018-Jul-15 15:59N 61°40' E 004°58'0 0.0
2018-Jul-15 15:28N 61°40' E 004°58'0 0.0
2018-Jul-15 14:56N 61°40' E 004°58'0 0.0
2018-Jul-15 14:30N 61°40' E 004°58'0 0.0
2018-Jul-15 14:00N 61°40' E 004°58'0 0.0
2018-Jul-15 13:28N 61°40' E 004°58'0 0.0
2018-Jul-15 12:55N 61°40' E 004°58'0 0.0
2018-Jul-15 12:28N 61°40' E 004°58'0 0.0
2018-Jul-15 11:58N 61°40' E 004°58'0 0.0
2018-Jul-15 11:28N 61°40' E 004°58'0 0.0
2018-Jul-15 11:00N 61°40' E 004°58'0 0.0
2018-Jul-15 10:30N 61°40' E 004°58'0 0.0
2018-Jul-15 10:00N 61°40' E 004°58'0 0.0
2018-Jul-15 09:30N 61°40' E 004°58'0 0.0
2018-Jul-15 08:59N 61°40' E 004°58'0 0.0
2018-Jul-15 08:29N 61°40' E 004°58'0 0.0
2018-Jul-15 07:58N 61°40' E 004°58'0 0.0
2018-Jul-15 07:29N 61°40' E 004°58'0 0.0
2018-Jul-15 07:00N 61°40' E 004°58'0 0.0
2018-Jul-15 06:30N 61°40' E 004°58'0 0.0
2018-Jul-15 06:00N 61°40' E 004°58'0 0.0
2018-Jul-15 05:30N 61°40' E 004°58'0 0.0
2018-Jul-15 05:00N 61°40' E 004°58'0 0.0
2018-Jul-15 04:27N 61°40' E 004°58'0 0.0
2018-Jul-15 04:00N 61°40' E 004°58'0 0.0
2018-Jul-15 03:30N 61°40' E 004°58'0 0.0
2018-Jul-15 03:00N 61°40' E 004°58'0 0.0
2018-Jul-15 02:29N 61°40' E 004°58'0 0.0
2018-Jul-15 01:59N 61°40' E 004°58'0 0.0
2018-Jul-15 01:29N 61°40' E 004°58'0 0.0
2018-Jul-15 00:59N 61°40' E 004°58'0 0.0
2018-Jul-15 00:29N 61°40' E 004°58'0 0.0
2018-Jul-14 23:58N 61°40' E 004°58'0 0.0
2018-Jul-14 23:25N 61°40' E 004°58'0 0.0
2018-Jul-14 22:58N 61°40' E 004°58'0 0.0
2018-Jul-14 22:23N 61°40' E 004°58'0 0.0
2018-Jul-14 22:00N 61°40' E 004°58'0 0.0
2018-Jul-14 21:30N 61°40' E 004°58'0 0.0
2018-Jul-14 21:00N 61°40' E 004°58'0 0.0
2018-Jul-14 20:30N 61°40' E 004°58'0 0.0
2018-Jul-14 20:00N 61°40' E 004°58'0 0.1
2018-Jul-14 19:30N 61°40' E 004°58'3 7.1
2018-Jul-14 19:01N 61°43' E 004°55'510.2
2018-Jul-14 18:30N 61°42' E 004°44'611.4
2018-Jul-14 18:00N 61°46' E 004°36'611.1
2018-Jul-14 17:30N 61°52' E 004°39'1 2.1
2018-Jul-14 17:00N 61°53' E 004°39'0 0.9
2018-Jul-14 16:30N 61°53' E 004°38'1 1.1
2018-Jul-14 15:59N 61°53' E 004°37'1 1.1
2018-Jul-14 15:30N 61°52' E 004°36'1 1.3
2018-Jul-14 15:00N 61°52' E 004°35'1 1.1
2018-Jul-14 14:00N 61°52' E 004°32'1 1.0
2018-Jul-14 13:30N 61°52' E 004°31'1 1.1
2018-Jul-14 13:00N 61°52' E 004°30'0 0.9
2018-Jul-14 12:29N 61°52' E 004°29'0 1.0
2018-Jul-14 12:00N 61°51' E 004°28'0 1.0
2018-Jul-14 11:30N 61°51' E 004°27'1 1.1
2018-Jul-14 10:59N 61°51' E 004°26'1 1.1
2018-Jul-14 10:30N 61°51' E 004°25'1 1.2
2018-Jul-14 10:00N 61°50' E 004°24'181 8.0
2018-Jul-13 11:17N 58°49' E 004°24'5 9.7
2018-Jul-13 10:48N 58°45' E 004°29'4 9.7
2018-Jul-13 10:24N 58°42' E 004°34'4 9.4
2018-Jul-13 09:59N 58°39' E 004°38'4 9.3
2018-Jul-13 09:31N 58°35' E 004°42'3410.9
2018-Jul-13 06:24N 58°05' E 005°12'510.2
2018-Jul-13 05:56N 58°00' E 005°14'910.2
2018-Jul-13 05:03N 57°51' E 005°18'010.3
2018-Jul-13 05:00N 57°51' E 005°18'9 9.8
2018-Jul-13 04:06N 57°42' E 005°21'1 9.9
2018-Jul-13 03:57N 57°41' E 005°22'5 9.9
2018-Jul-13 03:30N 57°36' E 005°23'12 9.8
2018-Jul-13 02:16N 57°25' E 005°27'7 9.8
2018-Jul-13 01:31N 57°17' E 005°30'3 9.8
2018-Jul-13 01:15N 57°15' E 005°31'3 9.8
2018-Jul-13 00:55N 57°12' E 005°32'5 9.9
2018-Jul-13 00:23N 57°06' E 005°34'5 9.9
2018-Jul-12 23:53N 57°02' E 005°36'4 9.9
2018-Jul-12 23:30N 56°58' E 005°37'610.2
2018-Jul-12 22:53N 56°51' E 005°39'4 9.9
2018-Jul-12 22:29N 56°48' E 005°40'5 9.8
2018-Jul-12 22:00N 56°43' E 005°42'910.2
2018-Jul-12 21:08N 56°34' E 005°43'2 9.8
2018-Jul-12 20:58N 56°32' E 005°44'35 9.8
2018-Jul-12 17:24N 55°58' E 005°40'63 9.4
2018-Jul-12 10:40N 54°54' E 005°29'2 9.7
2018-Jul-12 10:29N 54°53' E 005°29'5 9.7
2018-Jul-12 09:57N 54°48' E 005°27'6 9.7
2018-Jul-12 09:23N 54°42' E 005°25'5 9.8
2018-Jul-12 08:50N 54°37' E 005°23'5 9.9
2018-Jul-12 08:17N 54°32' E 005°20'310.1
2018-Jul-12 08:00N 54°29' E 005°19'2712.0
2018-Jul-12 05:47N 54°03' E 005°07'310.2
2018-Jul-12 05:30N 54°01' E 005°05'711.3
2018-Jul-12 04:55N 53°55' E 005°01'611.3
2018-Jul-12 04:22N 53°49' E 004°58'511.4
2018-Jul-12 03:55N 53°44' E 004°55'511.6
2018-Jul-12 03:30N 53°39' E 004°52'611.8
2018-Jul-12 03:00N 53°34' E 004°49'611.2
2018-Jul-12 02:30N 53°29' E 004°45'510.9
2018-Jul-12 02:00N 53°24' E 004°42'611.2
2018-Jul-12 01:30N 53°18' E 004°38'511.0
2018-Jul-12 01:00N 53°13' E 004°34'510.7
2018-Jul-12 00:30N 53°09' E 004°30'510.5
2018-Jul-12 00:00N 53°04' E 004°26'510.3
2018-Jul-11 23:30N 52°60' E 004°21'510.1
2018-Jul-11 23:00N 52°55' E 004°18'510.3
2018-Jul-11 22:30N 52°50' E 004°15'5 9.8
2018-Jul-11 21:59N 52°46' E 004°10'510.4
2018-Jul-11 21:30N 52°42' E 004°05'510.3
2018-Jul-11 20:59N 52°38' E 004°01'510.2
2018-Jul-11 20:30N 52°33' E 003°57'5 9.8
2018-Jul-11 20:00N 52°29' E 003°54'5 9.2
2018-Jul-11 19:30N 52°24' E 003°53'5 9.1
2018-Jul-11 19:00N 52°20' E 003°51'510.4
2018-Jul-11 18:30N 52°15' E 003°53'510.4
2018-Jul-11 18:00N 52°09' E 003°54'5 9.6
2018-Jul-11 17:30N 52°05' E 003°54'3 5.2
2018-Jul-11 17:00N 52°02' E 003°56'612.6
2018-Jul-11 16:30N 51°59' E 004°05'611.9
2018-Jul-11 16:00N 51°56' E 004°13'4 7.7
2018-Jul-11 15:30N 51°53' E 004°17'0 0.9
2018-Jul-11 15:00N 51°53' E 004°16'0 0.0
2018-Jul-11 14:30N 51°53' E 004°16'0 0.0
2018-Jul-11 13:59N 51°53' E 004°16'0 0.0
2018-Jul-11 13:29N 51°53' E 004°16'  

Dump ship's entire track history